Time;durP1;ratioP1;P1;durP2;ratioP2;P2;SDS_P1;SDS_P2;PMS_P1;PMS_P2;Temp;Humidity;BMP_temperature;BMP_pressure;BME280_temperature;BME280_humidity;BME280_pressure;Samples;Min_cycle;Max_cycle;Signal;HPM_P1;HPM_P2
2023/06/17 00:02:27;;;;;;;;;;;;;;;;;;5000923;28;19926;-79
2023/06/17 00:05:13;;;;;;;;;;;;;;;;;;4999387;28;19921;-79
2023/06/17 00:08:00;;;;;;;;;;;;;;;;;;5000078;28;20304;-79
2023/06/17 00:10:46;;;;;;;;;;;;;;;;;;5000235;28;19925;-80
2023/06/17 00:13:33;;;;;;;;;;;;;;;;;;4999082;28;19936;-80
2023/06/17 00:16:20;;;;;;;;;;;;;;;;;;5001407;28;19921;-80
2023/06/17 00:19:07;;;;;;;;;;;;;;;;;;5014413;28;19913;-80
2023/06/17 00:21:54;;;;;;;;;;;;;;;;;;5001970;28;19940;-80
2023/06/17 00:24:41;;;;;;;;;;;;;;;;;;5000109;28;19956;-80
2023/06/17 00:27:27;;;;;;;;;;;;;;;;;;4994832;28;19922;-82
2023/06/17 00:30:14;;;;;;;;;;;;;;;;;;4996713;28;19914;-81
2023/06/17 00:33:00;;;;;;;;;;;;;;;;;;4999842;28;20695;-81
2023/06/17 00:35:47;;;;;;;;;;;;;;;;;;4998184;28;19964;-81
2023/06/17 00:38:33;;;;;;;;;;;;;;;;;;5000802;28;19917;-81
2023/06/17 00:41:20;;;;;;;;;;;;;;;;;;5000931;28;19932;-81
2023/06/17 00:44:06;;;;;;;;;;;;;;;;;;4998803;28;19918;-81
2023/06/17 00:46:53;;;;;;;;;;;;;;;;;;5000937;28;19928;-82
2023/06/17 00:49:39;;;;;;;;;;;;;;;;;;4995846;28;19999;-81
2023/06/17 00:52:26;;;;;;;;;;;;;;;;;;4995136;28;19925;-82
2023/06/17 00:55:12;;;;;;;;;;;;;;;;;;4992745;28;19921;-82
2023/06/17 00:57:59;;;;;;;;;;;;;;;;;;4995024;28;19931;-82
2023/06/17 01:00:45;;;;;;;;;;;;;;;;;;4995999;28;20340;-82
2023/06/17 01:03:34;;;;;;;;;;;;;;;;;;4998137;28;19913;-81
2023/06/17 01:06:24;;;;;;;;;;;;;;;;;;4996935;28;19933;-81
2023/06/17 01:09:11;;;;;;;;;;;;;;;;;;5003995;28;19924;-81
2023/06/17 01:11:57;;;;;;;;;;;;;;;;;;4994168;28;19914;-82
2023/06/17 01:14:45;;;;;;;;;;;;;;;;;;4999742;28;19922;-81
2023/06/17 01:17:32;;;;;;;;;;;;;;;;;;4998143;28;19917;-81
2023/06/17 01:20:18;;;;;;;;;;;;;;;;;;4999859;28;19925;-82
2023/06/17 01:23:07;;;;;;;;;;;;;;;;;;5001218;28;20384;-80
2023/06/17 01:25:57;;;;;;;;;;;;;;;;;;4993638;28;19928;-81
2023/06/17 01:28:45;;;;;;;;;;;;;;;;;;4993932;28;19913;-81
2023/06/17 01:31:32;;;;;;;;;;;;;;;;;;4989714;28;19928;-80
2023/06/17 01:34:19;;;;;;;;;;;;;;;;;;5002612;28;19929;-81
2023/06/17 01:37:05;;;;;;;;;;;;;;;;;;5003388;28;19918;-81
2023/06/17 01:39:52;;;;;;;;;;;;;;;;;;5004761;28;20304;-81
2023/06/17 01:42:38;;;;;;;;;;;;;;;;;;5000706;28;21077;-80
2023/06/17 01:45:25;;;;;;;;;;;;;;;;;;5001891;28;20376;-81
2023/06/17 01:48:11;;;;;;;;;;;;;;;;;;4999303;28;19917;-81
2023/06/17 01:50:58;;;;;;;;;;;;;;;;;;4989333;28;19918;-81
2023/06/17 01:53:44;;;;;;;;;;;;;;;;;;5014951;28;19926;-80
2023/06/17 01:56:30;;;;;;;;;;;;;;;;;;5005298;28;19921;-80
2023/06/17 01:59:17;;;;;;;;;;;;;;;;;;5002872;28;19924;-80
2023/06/17 02:02:03;;;;;;;;;;;;;;;;;;5004746;28;19914;-81
2023/06/17 02:04:50;;;;;;;;;;;;;;;;;;4999434;28;19923;-80
2023/06/17 02:07:37;;;;;;;;;;;;;;;;;;5002434;28;19918;-78
2023/06/17 02:10:24;;;;;;;;;;;;;;;;;;5001404;28;19925;-81
2023/06/17 02:13:10;;;;;;;;;;;;;;;;;;5013557;28;19922;-81
2023/06/17 02:15:57;;;;;;;;;;;;;;;;;;4999148;28;19914;-81
2023/06/17 02:18:44;;;;;;;;;;;;;;;;;;5000032;28;19954;-81
2023/06/17 02:21:30;;;;;;;;;;;;;;;;;;5000509;28;19917;-81
2023/06/17 02:24:17;;;;;;;;;;;;;;;;;;4998486;28;19925;-81
2023/06/17 02:27:03;;;;;;;;;;;;;;;;;;4998951;28;19921;-81
2023/06/17 02:29:50;;;;;;;;;;;;;;;;;;5004338;28;19924;-82
2023/06/17 02:32:36;;;;;;;;;;;;;;;;;;4992346;28;19922;-81
2023/06/17 02:35:23;;;;;;;;;;;;;;;;;;5017882;28;20396;-80
2023/06/17 02:38:09;;;;;;;;;;;;;;;;;;5005997;28;19929;-80
2023/06/17 02:40:56;;;;;;;;;;;;;;;;;;4997296;28;19917;-81
2023/06/17 02:43:42;;;;;;;;;;;;;;;;;;5003731;28;19922;-80
2023/06/17 02:46:29;;;;;;;;;;;;;;;;;;5005263;28;19936;-79
2023/06/17 02:49:16;;;;;;;;;;;;;;;;;;5004485;28;20341;-80
2023/06/17 02:52:03;;;;;;;;;;;;;;;;;;5005405;28;19929;-81
2023/06/17 02:54:49;;;;;;;;;;;;;;;;;;5002722;28;19925;-80
2023/06/17 02:57:36;;;;;;;;;;;;;;;;;;5001999;28;19921;-81
2023/06/17 03:00:22;;;;;;;;;;;;;;;;;;5000364;28;20459;-83
2023/06/17 03:03:09;;;;;;;;;;;;;;;;;;5002545;28;19921;-83
2023/06/17 03:05:56;;;;;;;;;;;;;;;;;;4993068;28;19918;-83
2023/06/17 03:08:43;;;;;;;;;;;;;;;;;;5002497;28;19945;-83
2023/06/17 03:11:29;;;;;;;;;;;;;;;;;;5002914;28;19964;-81
2023/06/17 03:14:19;;;;;;;;;;;;;;;;;;4999025;28;19932;-82
2023/06/17 03:17:06;;;;;;;;;;;;;;;;;;5000390;28;19918;-82
2023/06/17 03:19:52;;;;;;;;;;;;;;;;;;4999637;28;20471;-82
2023/06/17 03:22:39;;;;;;;;;;;;;;;;;;4998741;28;19941;-82
2023/06/17 03:25:26;;;;;;;;;;;;;;;;;;5002942;28;20460;-82
2023/06/17 03:28:12;;;;;;;;;;;;;;;;;;5001147;28;20365;-81
2023/06/17 03:30:59;;;;;;;;;;;;;;;;;;4998187;28;20269;-81
2023/06/17 03:33:45;;;;;;;;;;;;;;;;;;4999483;28;20363;-81
2023/06/17 03:36:32;;;;;;;;;;;;;;;;;;4999236;28;19925;-81
2023/06/17 03:39:18;;;;;;;;;;;;;;;;;;5001919;28;19914;-80
2023/06/17 03:42:06;;;;;;;;;;;;;;;;;;5006030;28;20369;-81
2023/06/17 03:44:54;;;;;;;;;;;;;;;;;;4999755;28;20669;-81
2023/06/17 03:47:41;;;;;;;;;;;;;;;;;;4996250;28;20563;-82
2023/06/17 03:50:27;;;;;;;;;;;;;;;;;;5003832;28;19931;-80
2023/06/17 03:53:14;;;;;;;;;;;;;;;;;;5000890;28;19932;-80
2023/06/17 03:56:00;;;;;;;;;;;;;;;;;;4995066;28;19913;-84
2023/06/17 03:58:47;;;;;;;;;;;;;;;;;;4996617;28;20293;-81
2023/06/17 04:01:35;;;;;;;;;;;;;;;;;;5001899;28;19928;-81
2023/06/17 04:04:21;;;;;;;;;;;;;;;;;;4995911;28;19929;-82
2023/06/17 04:07:08;;;;;;;;;;;;;;;;;;4994492;28;19914;-81
2023/06/17 04:09:54;;;;;;;;;;;;;;;;;;5002848;28;19928;-81
2023/06/17 04:12:41;;;;;;;;;;;;;;;;;;4995102;28;19921;-80
2023/06/17 04:15:27;;;;;;;;;;;;;;;;;;4996916;28;19932;-80
2023/06/17 04:18:14;;;;;;;;;;;;;;;;;;5004127;28;20304;-80
2023/06/17 04:21:01;;;;;;;;;;;;;;;;;;4998943;28;20431;-81
2023/06/17 04:23:51;;;;;;;;;;;;;;;;;;4995543;28;20439;-82
2023/06/17 04:26:37;;;;;;;;;;;;;;;;;;4985138;28;19917;-82
2023/06/17 04:29:24;;;;;;;;;;;;;;;;;;4997161;28;19922;-82
2023/06/17 04:32:15;;;;;;;;;;;;;;;;;;5002882;28;19914;-81
2023/06/17 04:35:04;;;;;;;;;;;;;;;;;;4999994;28;20110;-81
2023/06/17 04:37:54;;;;;;;;;;;;;;;;;;5002380;28;20286;-81
2023/06/17 04:40:40;;;;;;;;;;;;;;;;;;4995634;28;19919;-81
2023/06/17 04:43:28;;;;;;;;;;;;;;;;;;4996180;28;20384;-80
2023/06/17 04:46:16;;;;;;;;;;;;;;;;;;5001639;28;19923;-80
2023/06/17 04:49:03;;;;;;;;;;;;;;;;;;4999094;28;19929;-80
2023/06/17 04:51:52;;;;;;;;;;;;;;;;;;5000516;28;21030;-82
2023/06/17 04:54:39;;;;;;;;;;;;;;;;;;5012092;28;19940;-83
2023/06/17 04:57:25;;;;;;;;;;;;;;;;;;4997037;28;19932;-82
2023/06/17 05:00:12;;;;;;;;;;;;;;;;;;5004041;28;19917;-82
2023/06/17 05:02:58;;;;;;;;;;;;;;;;;;5000686;28;19921;-82
2023/06/17 05:05:46;;;;;;;;;;;;;;;;;;5001474;28;19924;-81
2023/06/17 05:08:33;;;;;;;;;;;;;;;;;;5000590;28;19922;-82
2023/06/17 05:11:19;;;;;;;;;;;;;;;;;;4995768;28;20273;-81
2023/06/17 05:14:06;;;;;;;;;;;;;;;;;;4995165;28;19921;-81
2023/06/17 05:16:52;;;;;;;;;;;;;;;;;;4990922;28;19918;-79
2023/06/17 05:19:39;;;;;;;;;;;;;;;;;;4997900;28;19921;-80
2023/06/17 05:22:25;;;;;;;;;;;;;;;;;;4994241;28;20281;-79
2023/06/17 05:25:12;;;;;;;;;;;;;;;;;;5014629;28;19925;-79
2023/06/17 05:28:00;;;;;;;;;;;;;;;;;;4987274;28;19927;-80
2023/06/17 05:30:46;;;;;;;;;;;;;;;;;;4998211;28;19921;-80
2023/06/17 05:33:33;;;;;;;;;;;;;;;;;;4996669;28;19922;-81
2023/06/17 05:36:19;;;;;;;;;;;;;;;;;;4999621;28;19928;-81
2023/06/17 05:39:06;;;;;;;;;;;;;;;;;;5002546;28;19920;-84
2023/06/17 05:41:52;;;;;;;;;;;;;;;;;;5000124;28;20369;-82
2023/06/17 05:44:40;;;;;;;;;;;;;;;;;;4995936;28;19921;-82
2023/06/17 05:47:27;;;;;;;;;;;;;;;;;;4995729;28;19921;-82
2023/06/17 05:50:13;;;;;;;;;;;;;;;;;;5002595;28;19921;-83
2023/06/17 05:53:00;;;;;;;;;;;;;;;;;;4983364;28;20011;-82
2023/06/17 05:55:46;;;;;;;;;;;;;;;;;;5005333;28;19936;-81
2023/06/17 05:58:33;;;;;;;;;;;;;;;;;;4994520;28;19942;-81
2023/06/17 06:01:19;;;;;;;;;;;;;;;;;;5001041;28;20300;-79
2023/06/17 06:04:06;;;;;;;;;;;;;;;;;;5002132;28;19921;-81
2023/06/17 06:06:52;;;;;;;;;;;;;;;;;;5000431;28;19921;-80
2023/06/17 06:09:39;;;;;;;;;;;;;;;;;;4998412;28;19952;-83
2023/06/17 06:12:25;;;;;;;;;;;;;;;;;;4987915;28;19917;-81
2023/06/17 06:15:12;;;;;;;;;;;;;;;;;;4990460;28;19926;-79
2023/06/17 06:17:58;;;;;;;;;;;;;;;;;;5001639;28;20259;-80
2023/06/17 06:20:45;;;;;;;;;;;;;;;;;;4992707;28;19917;-81
2023/06/17 06:23:31;;;;;;;;;;;;;;;;;;4982811;28;19936;-85
2023/06/17 06:26:18;;;;;;;;;;;;;;;;;;5010603;28;20678;-85
2023/06/17 06:29:04;;;;;;;;;;;;;;;;;;4998494;28;19924;-85
2023/06/17 06:31:51;;;;;;;;;;;;;;;;;;5000726;28;20591;-85
2023/06/17 06:34:37;;;;;;;;;;;;;;;;;;4990477;28;20709;-85
2023/06/17 06:37:24;;;;;;;;;;;;;;;;;;4995967;28;19924;-82
2023/06/17 06:40:10;;;;;;;;;;;;;;;;;;4996344;28;20288;-82
2023/06/17 06:42:57;;;;;;;;;;;;;;;;;;4999565;28;19925;-82
2023/06/17 06:45:43;;;;;;;;;;;;;;;;;;5001605;28;19928;-82
2023/06/17 06:48:30;;;;;;;;;;;;;;;;;;5004181;28;19913;-83
2023/06/17 06:51:16;;;;;;;;;;;;;;;;;;4999156;28;19924;-87
2023/06/17 06:54:03;;;;;;;;;;;;;;;;;;5004030;28;20382;-84
2023/06/17 06:56:49;;;;;;;;;;;;;;;;;;4999898;28;19925;-83
2023/06/17 06:59:36;;;;;;;;;;;;;;;;;;4993854;28;19921;-80
2023/06/17 07:02:22;;;;;;;;;;;;;;;;;;4991338;28;19918;-83
2023/06/17 07:05:09;;;;;;;;;;;;;;;;;;5006398;28;19921;-85
2023/06/17 07:07:55;;;;;;;;;;;;;;;;;;5003303;28;19924;-85
2023/06/17 07:10:42;;;;;;;;;;;;;;;;;;5004901;28;19914;-85
2023/06/17 07:13:28;;;;;;;;;;;;;;;;;;5002103;28;20534;-86
2023/06/17 07:16:15;;;;;;;;;;;;;;;;;;4995169;28;20233;-82
2023/06/17 07:19:01;;;;;;;;;;;;;;;;;;5000487;28;20418;-82
2023/06/17 07:21:48;;;;;;;;;;;;;;;;;;4997911;28;19922;-85
2023/06/17 07:24:35;;;;;;;;;;;;;;;;;;4999082;28;19940;-83
2023/06/17 07:27:21;;;;;;;;;;;;;;;;;;4991714;28;19926;-83
2023/06/17 07:30:08;;;;;;;;;;;;;;;;;;5004474;28;19929;-82
2023/06/17 07:32:54;;;;;;;;;;;;;;;;;;4990415;28;19925;-82
2023/06/17 07:35:41;;;;;;;;;;;;;;;;;;4990961;28;19921;-82
2023/06/17 07:38:27;;;;;;;;;;;;;;;;;;5002845;28;19921;-83
2023/06/17 07:41:14;;;;;;;;;;;;;;;;;;4998851;28;19917;-83
2023/06/17 07:44:00;;;;;;;;;;;;;;;;;;4998639;28;20425;-82
2023/06/17 07:46:47;;;;;;;;;;;;;;;;;;4999560;28;19933;-83
2023/06/17 07:49:33;;;;;;;;;;;;;;;;;;5010710;28;19917;-82
2023/06/17 07:52:20;;;;;;;;;;;;;;;;;;4992907;28;20284;-83
2023/06/17 07:55:08;;;;;;;;;;;;;;;;;;5002792;28;19930;-83
2023/06/17 07:57:55;;;;;;;;;;;;;;;;;;4989816;28;20333;-82
2023/06/17 08:00:41;;;;;;;;;;;;;;;;;;5015140;28;19917;-82
2023/06/17 08:03:28;;;;;;;;;;;;;;;;;;4994056;28;19921;-82
2023/06/17 08:06:14;;;;;;;;;;;;;;;;;;5001658;28;20369;-83
2023/06/17 08:09:01;;;;;;;;;;;;;;;;;;4999389;28;19921;-82
2023/06/17 08:11:47;;;;;;;;;;;;;;;;;;4997529;28;19924;-83
2023/06/17 08:14:34;;;;;;;;;;;;;;;;;;5017642;28;19933;-83
2023/06/17 08:17:20;;;;;;;;;;;;;;;;;;4998224;28;19975;-82
2023/06/17 08:20:09;;;;;;;;;;;;;;;;;;5001959;28;19948;-82
2023/06/17 08:22:56;;;;;;;;;;;;;;;;;;4990206;28;19929;-83
2023/06/17 08:25:42;;;;;;;;;;;;;;;;;;4997655;28;19921;-83
2023/06/17 08:28:29;;;;;;;;;;;;;;;;;;4996750;28;19947;-83
2023/06/17 08:31:16;;;;;;;;;;;;;;;;;;4999075;28;19914;-82
2023/06/17 08:34:03;;;;;;;;;;;;;;;;;;5001778;28;19929;-82
2023/06/17 08:36:49;;;;;;;;;;;;;;;;;;5000004;28;19914;-83
2023/06/17 08:39:39;;;;;;;;;;;;;;;;;;5003584;28;19918;-82
2023/06/17 08:42:25;;;;;;;;;;;;;;;;;;4997618;28;19925;-82
2023/06/17 08:45:12;;;;;;;;;;;;;;;;;;4992108;28;20308;-83
2023/06/17 08:51:08;;;;;;;;;;;;;;;;;;4998026;28;19921;-82
2023/06/17 08:53:54;;;;;;;;;;;;;;;;;;4991537;28;19925;-82
2023/06/17 08:56:41;;;;;;;;;;;;;;;;;;4994880;28;19913;-82
2023/06/17 08:59:27;;;;;;;;;;;;;;;;;;4997810;28;20617;-83
2023/06/17 09:02:14;;;;;;;;;;;;;;;;;;4991019;28;19918;-81
2023/06/17 09:05:01;;;;;;;;;;;;;;;;;;5000615;28;19921;-83
2023/06/17 09:07:48;;;;;;;;;;;;;;;;;;4996584;28;19917;-83
2023/06/17 09:10:34;;;;;;;;;;;;;;;;;;4998940;28;20587;-83
2023/06/17 09:13:20;;;;;;;;;;;;;;;;;;5005979;28;19917;-82
2023/06/17 09:16:07;;;;;;;;;;;;;;;;;;4991550;28;19917;-82
2023/06/17 09:18:53;;;;;;;;;;;;;;;;;;4991976;28;19923;-81
2023/06/17 09:21:40;;;;;;;;;;;;;;;;;;4997449;28;19914;-83
2023/06/17 09:24:27;;;;;;;;;;;;;;;;;;4980382;28;20601;-83
2023/06/17 09:27:13;;;;;;;;;;;;;;;;;;4996279;28;19921;-82
2023/06/17 09:29:59;;;;;;;;;;;;;;;;;;4997157;28;19925;-82
2023/06/17 09:32:49;;;;;;;;;;;;;;;;;;4994786;28;20290;-83
2023/06/17 09:35:35;;;;;;;;;;;;;;;;;;5000190;28;19922;-83
2023/06/17 09:38:22;;;;;;;;;;;;;;;;;;5001839;28;19921;-83
2023/06/17 09:41:08;;;;;;;;;;;;;;;;;;5003332;28;19928;-83
2023/06/17 09:43:55;;;;;;;;;;;;;;;;;;4994107;28;20022;-83
2023/06/17 09:46:46;;;;;;;;;;;;;;;;;;4995434;28;20345;-82
2023/06/17 09:49:32;;;;;;;;;;;;;;;;;;5003960;28;20365;-82
2023/06/17 09:52:20;;;;;;;;;;;;;;;;;;4999836;28;19918;-82
2023/06/17 09:55:07;;;;;;;;;;;;;;;;;;4998941;28;20392;-82
2023/06/17 09:57:54;;;;;;;;;;;;;;;;;;5004300;28;19917;-82
2023/06/17 10:00:41;;;;;;;;;;;;;;;;;;4996729;28;19925;-82
2023/06/17 10:03:27;;;;;;;;;;;;;;;;;;5000728;28;19936;-82
2023/06/17 10:06:16;;;;;;;;;;;;;;;;;;5005305;28;19948;-83
2023/06/17 10:09:02;;;;;;;;;;;;;;;;;;4996321;28;19932;-81
2023/06/17 10:11:49;;;;;;;;;;;;;;;;;;5000306;28;19922;-82
2023/06/17 10:14:35;;;;;;;;;;;;;;;;;;5004264;28;20571;-83
2023/06/17 10:17:22;;;;;;;;;;;;;;;;;;4997760;28;19921;-81
2023/06/17 10:20:08;;;;;;;;;;;;;;;;;;4999055;28;19921;-82
2023/06/17 10:22:55;;;;;;;;;;;;;;;;;;5000481;28;19937;-82
2023/06/17 10:25:41;;;;;;;;;;;;;;;;;;4995631;28;19929;-82
2023/06/17 10:28:28;;;;;;;;;;;;;;;;;;4991513;28;19925;-82
2023/06/17 10:31:14;;;;;;;;;;;;;;;;;;5001786;28;20352;-83
2023/06/17 10:34:01;;;;;;;;;;;;;;;;;;4996129;28;19925;-83
2023/06/17 10:36:47;;;;;;;;;;;;;;;;;;4994064;28;19925;-82
2023/06/17 10:39:34;;;;;;;;;;;;;;;;;;5003253;28;20376;-83
2023/06/17 10:42:20;;;;;;;;;;;;;;;;;;4979314;28;20407;-81
2023/06/17 10:45:07;;;;;;;;;;;;;;;;;;5004716;28;19929;-84
2023/06/17 10:47:54;;;;;;;;;;;;;;;;;;4999907;28;19941;-83
2023/06/17 10:50:41;;;;;;;;;;;;;;;;;;4993539;28;19932;-83
2023/06/17 10:53:27;;;;;;;;;;;;;;;;;;5005243;28;19940;-82
2023/06/17 10:56:14;;;;;;;;;;;;;;;;;;4992607;28;19945;-82
2023/06/17 10:59:00;;;;;;;;;;;;;;;;;;4996823;28;19914;-83
2023/06/17 11:01:47;;;;;;;;;;;;;;;;;;4993016;28;19918;-82
2023/06/17 11:04:33;;;;;;;;;;;;;;;;;;5002327;28;19940;-83
2023/06/17 11:07:20;;;;;;;;;;;;;;;;;;4995874;28;19914;-80
2023/06/17 11:10:06;;;;;;;;;;;;;;;;;;4993016;28;19917;-83
2023/06/17 11:12:53;;;;;;;;;;;;;;;;;;4993726;28;19944;-82
2023/06/17 11:15:39;;;;;;;;;;;;;;;;;;4984992;28;20289;-82
2023/06/17 11:18:26;;;;;;;;;;;;;;;;;;4986515;28;19921;-82
2023/06/17 11:21:15;;;;;;;;;;;;;;;;;;5002727;28;19928;-82
2023/06/17 11:24:01;;;;;;;;;;;;;;;;;;4999258;28;20320;-82
2023/06/17 11:26:48;;;;;;;;;;;;;;;;;;5001860;28;20372;-82
2023/06/17 11:29:34;;;;;;;;;;;;;;;;;;4996931;28;19925;-83
2023/06/17 11:32:20;;;;;;;;;;;;;;;;;;4995035;28;19924;-82
2023/06/17 11:35:07;;;;;;;;;;;;;;;;;;5003169;28;20044;-82
2023/06/17 11:37:54;;;;;;;;;;;;;;;;;;4998593;28;19927;-82
2023/06/17 11:40:42;;;;;;;;;;;;;;;;;;4992624;28;19922;-82
2023/06/17 11:43:28;;;;;;;;;;;;;;;;;;4995547;28;20041;-83
2023/06/17 11:46:15;;;;;;;;;;;;;;;;;;5005414;28;19918;-84
2023/06/17 11:49:01;;;;;;;;;;;;;;;;;;5008447;28;20297;-83
2023/06/17 11:51:51;;;;;;;;;;;;;;;;;;5009782;28;19921;-81
2023/06/17 11:54:38;;;;;;;;;;;;;;;;;;5010619;28;19932;-83
2023/06/17 11:57:25;;;;;;;;;;;;;;;;;;4993145;28;19924;-82
2023/06/17 12:00:12;;;;;;;;;;;;;;;;;;5001285;28;19926;-82
2023/06/17 12:02:58;;;;;;;;;;;;;;;;;;4995005;28;19913;-82
2023/06/17 12:05:45;;;;;;;;;;;;;;;;;;4992754;28;19921;-83
2023/06/17 12:08:32;;;;;;;;;;;;;;;;;;4985683;28;20732;-81
2023/06/17 12:11:18;;;;;;;;;;;;;;;;;;4999853;28;19925;-83
2023/06/17 12:14:05;;;;;;;;;;;;;;;;;;5008742;28;19928;-82
2023/06/17 12:16:52;;;;;;;;;;;;;;;;;;5004301;28;20392;-82
2023/06/17 12:19:38;;;;;;;;;;;;;;;;;;4999219;28;19927;-82
2023/06/17 12:22:24;;;;;;;;;;;;;;;;;;4995425;28;19944;-83
2023/06/17 12:25:11;;;;;;;;;;;;;;;;;;4995524;28;20269;-82
2023/06/17 12:27:57;;;;;;;;;;;;;;;;;;4996954;28;19918;-82
2023/06/17 12:30:44;;;;;;;;;;;;;;;;;;4999335;28;19925;-82
2023/06/17 12:33:30;;;;;;;;;;;;;;;;;;5002028;28;19917;-82
2023/06/17 12:36:17;;;;;;;;;;;;;;;;;;5003103;28;19925;-83
2023/06/17 12:39:04;;;;;;;;;;;;;;;;;;5001929;28;19918;-83
2023/06/17 12:41:51;;;;;;;;;;;;;;;;;;5000250;28;19928;-83
2023/06/17 12:44:37;;;;;;;;;;;;;;;;;;4990243;28;19918;-82
2023/06/17 12:47:23;;;;;;;;;;;;;;;;;;4990919;28;19925;-82
2023/06/17 12:50:11;;;;;;;;;;;;;;;;;;4996043;28;19948;-83
2023/06/17 12:52:57;;;;;;;;;;;;;;;;;;4994499;28;20004;-83
2023/06/17 12:55:44;;;;;;;;;;;;;;;;;;4996859;28;19929;-83
2023/06/17 12:58:30;;;;;;;;;;;;;;;;;;4994342;28;19918;-82
2023/06/17 13:01:16;;;;;;;;;;;;;;;;;;5003650;28;19923;-83
2023/06/17 13:04:03;;;;;;;;;;;;;;;;;;4998188;28;20293;-83
2023/06/17 13:06:49;;;;;;;;;;;;;;;;;;5000775;28;19932;-82
2023/06/17 13:09:39;;;;;;;;;;;;;;;;;;4998441;28;19924;-84
2023/06/17 13:12:28;;;;;;;;;;;;;;;;;;4969025;28;19917;-82
2023/06/17 13:15:14;;;;;;;;;;;;;;;;;;4965754;28;20407;-82
2023/06/17 13:18:01;;;;;;;;;;;;;;;;;;5000238;28;19914;-82
2023/06/17 13:20:47;;;;;;;;;;;;;;;;;;4998483;28;19921;-83
2023/06/17 13:23:34;;;;;;;;;;;;;;;;;;4999843;28;19929;-83
2023/06/17 13:26:21;;;;;;;;;;;;;;;;;;4997163;28;19925;-82
2023/06/17 13:29:08;;;;;;;;;;;;;;;;;;4997174;28;19925;-83
2023/06/17 13:31:55;;;;;;;;;;;;;;;;;;4992296;28;20286;-83
2023/06/17 13:34:41;;;;;;;;;;;;;;;;;;5000728;28;19921;-82
2023/06/17 13:37:29;;;;;;;;;;;;;;;;;;4999128;28;19929;-82
2023/06/17 13:40:16;;;;;;;;;;;;;;;;;;5006103;28;19940;-82
2023/06/17 13:43:03;;;;;;;;;;;;;;;;;;4995628;28;19937;-82
2023/06/17 13:45:50;;;;;;;;;;;;;;;;;;5006440;28;20381;-82
2023/06/17 13:48:36;;;;;;;;;;;;;;;;;;4999131;28;19921;-82
2023/06/17 13:51:25;;;;;;;;;;;;;;;;;;4997748;28;19922;-82
2023/06/17 13:54:12;;;;;;;;;;;;;;;;;;4971386;28;20289;-82
2023/06/17 13:56:58;;;;;;;;;;;;;;;;;;5000667;28;19921;-82
2023/06/17 13:59:46;;;;;;;;;;;;;;;;;;4993887;28;19914;-82
2023/06/17 14:02:32;;;;;;;;;;;;;;;;;;5002657;28;19967;-82
2023/06/17 14:05:19;;;;;;;;;;;;;;;;;;5002239;28;20483;-82
2023/06/17 14:08:06;;;;;;;;;;;;;;;;;;4996832;28;19925;-82
2023/06/17 14:10:57;;;;;;;;;;;;;;;;;;4997356;28;19933;-82
2023/06/17 14:13:44;;;;;;;;;;;;;;;;;;5003801;28;19925;-82
2023/06/17 14:16:30;;;;;;;;;;;;;;;;;;4996109;28;20313;-82
2023/06/17 14:19:17;;;;;;;;;;;;;;;;;;4999451;28;19917;-83
2023/06/17 14:22:06;;;;;;;;;;;;;;;;;;5002358;28;19932;-82
2023/06/17 14:24:53;;;;;;;;;;;;;;;;;;4984344;28;19929;-83
2023/06/17 14:27:39;;;;;;;;;;;;;;;;;;4993706;28;19917;-82
2023/06/17 14:30:26;;;;;;;;;;;;;;;;;;5006092;28;19948;-83
2023/06/17 14:33:12;;;;;;;;;;;;;;;;;;5008730;28;19932;-82
2023/06/17 14:36:02;;;;;;;;;;;;;;;;;;5004755;28;19933;-83
2023/06/17 14:38:48;;;;;;;;;;;;;;;;;;5000551;28;19924;-83
2023/06/17 14:41:35;;;;;;;;;;;;;;;;;;5002049;28;19918;-83
2023/06/17 14:44:22;;;;;;;;;;;;;;;;;;4991454;28;19925;-82
2023/06/17 14:47:08;;;;;;;;;;;;;;;;;;4998301;28;19924;-81
2023/06/17 14:49:55;;;;;;;;;;;;;;;;;;5005150;28;19936;-82
2023/06/17 14:52:47;;;;;;;;;;;;;;;;;;5003417;28;19929;-83
2023/06/17 14:55:33;;;;;;;;;;;;;;;;;;4995056;28;20634;-82
2023/06/17 14:58:19;;;;;;;;;;;;;;;;;;5001261;28;19922;-83
2023/06/17 15:01:06;;;;;;;;;;;;;;;;;;5003580;28;19937;-83
2023/06/17 15:03:52;;;;;;;;;;;;;;;;;;4999584;28;19925;-83
2023/06/17 15:06:39;;;;;;;;;;;;;;;;;;4991869;28;19936;-83
2023/06/17 15:09:26;;;;;;;;;;;;;;;;;;4994945;28;19914;-83
2023/06/17 15:12:12;;;;;;;;;;;;;;;;;;4995643;28;19984;-83
2023/06/17 15:15:01;;;;;;;;;;;;;;;;;;5001664;28;19926;-83
2023/06/17 15:17:47;;;;;;;;;;;;;;;;;;5008600;28;19924;-82
2023/06/17 15:20:34;;;;;;;;;;;;;;;;;;4999447;28;20384;-83
2023/06/17 15:23:21;;;;;;;;;;;;;;;;;;4996784;28;19936;-83
2023/06/17 15:26:07;;;;;;;;;;;;;;;;;;5002452;28;19921;-82
2023/06/17 15:28:54;;;;;;;;;;;;;;;;;;4993563;28;19921;-83
2023/06/17 15:31:40;;;;;;;;;;;;;;;;;;4992100;28;19934;-82
2023/06/17 15:34:27;;;;;;;;;;;;;;;;;;4971310;28;19928;-83
2023/06/17 15:37:13;;;;;;;;;;;;;;;;;;5001774;28;19932;-83
2023/06/17 15:40:00;;;;;;;;;;;;;;;;;;5003797;28;19933;-84
2023/06/17 15:42:46;;;;;;;;;;;;;;;;;;5004608;28;19921;-84
2023/06/17 15:45:33;;;;;;;;;;;;;;;;;;4992632;28;19921;-84
2023/06/17 15:48:19;;;;;;;;;;;;;;;;;;5001590;28;19913;-83
2023/06/17 15:51:06;;;;;;;;;;;;;;;;;;4997072;28;20343;-84
2023/06/17 15:53:52;;;;;;;;;;;;;;;;;;5005793;28;19924;-84
2023/06/17 15:56:39;;;;;;;;;;;;;;;;;;5001243;28;19925;-81
2023/06/17 15:59:25;;;;;;;;;;;;;;;;;;4998272;28;19914;-82
2023/06/17 16:02:12;;;;;;;;;;;;;;;;;;5008158;28;19926;-82
2023/06/17 16:04:58;;;;;;;;;;;;;;;;;;4987281;28;19914;-83
2023/06/17 16:07:45;;;;;;;;;;;;;;;;;;4994809;28;19928;-83
2023/06/17 16:10:31;;;;;;;;;;;;;;;;;;5000271;28;19940;-84
2023/06/17 16:13:18;;;;;;;;;;;;;;;;;;4994660;28;19917;-84
2023/06/17 16:16:04;;;;;;;;;;;;;;;;;;4993611;28;19928;-83
2023/06/17 16:18:51;;;;;;;;;;;;;;;;;;4999342;28;19917;-83
2023/06/17 16:21:38;;;;;;;;;;;;;;;;;;4999560;28;19921;-83
2023/06/17 16:24:24;;;;;;;;;;;;;;;;;;4981927;28;19929;-83
2023/06/17 16:27:11;;;;;;;;;;;;;;;;;;5005553;28;19926;-83
2023/06/17 16:29:57;;;;;;;;;;;;;;;;;;4997466;28;19941;-84
2023/06/17 16:32:44;;;;;;;;;;;;;;;;;;5002759;28;19917;-83
2023/06/17 16:35:33;;;;;;;;;;;;;;;;;;5002903;28;19929;-83
2023/06/17 16:38:20;;;;;;;;;;;;;;;;;;4992577;28;19961;-82
2023/06/17 16:41:06;;;;;;;;;;;;;;;;;;5000140;28;19918;-83
2023/06/17 16:43:53;;;;;;;;;;;;;;;;;;4997389;28;20275;-83
2023/06/17 16:46:40;;;;;;;;;;;;;;;;;;4978149;28;19921;-83
2023/06/17 16:49:26;;;;;;;;;;;;;;;;;;4995314;28;19924;-84
2023/06/17 16:52:13;;;;;;;;;;;;;;;;;;4999349;28;20336;-82
2023/06/17 16:54:59;;;;;;;;;;;;;;;;;;4998550;28;19928;-82
2023/06/17 16:57:46;;;;;;;;;;;;;;;;;;4984123;28;19925;-82
2023/06/17 17:00:32;;;;;;;;;;;;;;;;;;5000954;28;19917;-83
2023/06/17 17:03:19;;;;;;;;;;;;;;;;;;4989187;28;19925;-83
2023/06/17 17:06:05;;;;;;;;;;;;;;;;;;5004196;28;19917;-83
2023/06/17 17:08:52;;;;;;;;;;;;;;;;;;4991130;28;19957;-82
2023/06/17 17:11:38;;;;;;;;;;;;;;;;;;5003343;28;19968;-82
2023/06/17 17:14:25;;;;;;;;;;;;;;;;;;4994342;28;19921;-82
2023/06/17 17:17:11;;;;;;;;;;;;;;;;;;5001859;28;20372;-83
2023/06/17 17:19:58;;;;;;;;;;;;;;;;;;5001360;28;19944;-84
2023/06/17 17:22:45;;;;;;;;;;;;;;;;;;4999874;28;20377;-82
2023/06/17 17:25:32;;;;;;;;;;;;;;;;;;4995955;28;20440;-83
2023/06/17 17:28:18;;;;;;;;;;;;;;;;;;5002863;28;19920;-83
2023/06/17 17:31:05;;;;;;;;;;;;;;;;;;4995159;28;19918;-83
2023/06/17 17:33:51;;;;;;;;;;;;;;;;;;4994702;28;19914;-83
2023/06/17 17:36:38;;;;;;;;;;;;;;;;;;4997826;28;19936;-83
2023/06/17 17:39:24;;;;;;;;;;;;;;;;;;4997314;28;20373;-83
2023/06/17 17:42:11;;;;;;;;;;;;;;;;;;4990222;28;19918;-83
2023/06/17 17:44:57;;;;;;;;;;;;;;;;;;4998177;28;19933;-83
2023/06/17 17:47:44;;;;;;;;;;;;;;;;;;4993173;28;19937;-83
2023/06/17 17:50:30;;;;;;;;;;;;;;;;;;5001534;28;19930;-82
2023/06/17 17:53:17;;;;;;;;;;;;;;;;;;4999075;28;19939;-83
2023/06/17 17:56:03;;;;;;;;;;;;;;;;;;4988766;28;19940;-83
2023/06/17 17:58:50;;;;;;;;;;;;;;;;;;4996390;28;19925;-84
2023/06/17 18:01:36;;;;;;;;;;;;;;;;;;4996944;28;19925;-82
2023/06/17 18:04:23;;;;;;;;;;;;;;;;;;4995451;28;19930;-82
2023/06/17 18:07:09;;;;;;;;;;;;;;;;;;4993759;28;19920;-82
2023/06/17 18:09:56;;;;;;;;;;;;;;;;;;4990636;28;19922;-83
2023/06/17 18:12:43;;;;;;;;;;;;;;;;;;4977876;28;20363;-82
2023/06/17 18:15:29;;;;;;;;;;;;;;;;;;4990374;28;19936;-82
2023/06/17 18:18:16;;;;;;;;;;;;;;;;;;5001393;28;20301;-82
2023/06/17 18:21:02;;;;;;;;;;;;;;;;;;4997622;28;19922;-82
2023/06/17 18:23:49;;;;;;;;;;;;;;;;;;5004661;28;19936;-83
2023/06/17 18:26:36;;;;;;;;;;;;;;;;;;4999699;28;20371;-82
2023/06/17 18:29:23;;;;;;;;;;;;;;;;;;5000893;28;19917;-84
2023/06/17 18:32:12;;;;;;;;;;;;;;;;;;5000667;28;19924;-83
2023/06/17 18:34:59;;;;;;;;;;;;;;;;;;5004136;28;20398;-82
2023/06/17 18:37:46;;;;;;;;;;;;;;;;;;5002010;28;19925;-83
2023/06/17 18:40:32;;;;;;;;;;;;;;;;;;4978933;28;19925;-84
2023/06/17 18:43:22;;;;;;;;;;;;;;;;;;4990315;28;19928;-83
2023/06/17 18:46:08;;;;;;;;;;;;;;;;;;4993556;28;19922;-83
2023/06/17 18:48:55;;;;;;;;;;;;;;;;;;4995120;28;19914;-82
2023/06/17 18:51:41;;;;;;;;;;;;;;;;;;4998596;28;19921;-83
2023/06/17 18:54:28;;;;;;;;;;;;;;;;;;4999999;28;20470;-82
2023/06/17 18:57:14;;;;;;;;;;;;;;;;;;4994279;28;19929;-83
2023/06/17 19:00:01;;;;;;;;;;;;;;;;;;4994971;28;20672;-83
2023/06/17 19:02:47;;;;;;;;;;;;;;;;;;4999245;28;19928;-83